createdAt,value
2018-12-09T00:01:08.415Z,98392.03
2018-12-09T00:03:37.678Z,98389.69
2018-12-09T00:06:06.944Z,98387.73
2018-12-09T00:08:36.232Z,98381.88
2018-12-09T00:11:05.482Z,98376.95
2018-12-09T00:13:34.749Z,98374.02
2018-12-09T00:16:04.023Z,98370.86
2018-12-09T00:18:33.294Z,98362.20
2018-12-09T00:21:02.550Z,98372.06
2018-12-09T00:23:31.817Z,98357.09
2018-12-09T00:26:01.070Z,98363.59
2018-12-09T00:28:30.331Z,98352.38
2018-12-09T00:30:59.582Z,98351.22
2018-12-09T00:33:28.852Z,98335.08
2018-12-09T00:35:58.142Z,98328.20
2018-12-09T00:38:27.406Z,98326.83
2018-12-09T00:40:56.676Z,98320.15
2018-12-09T00:43:25.933Z,98322.14
2018-12-09T00:45:55.208Z,98323.34
2018-12-09T00:48:24.470Z,98315.87
2018-12-09T00:50:53.744Z,98303.45
2018-12-09T00:53:22.999Z,98320.00
2018-12-09T00:55:52.278Z,98296.93
2018-12-09T00:58:21.544Z,98299.50
2018-12-09T01:00:50.809Z,98308.75
2018-12-09T01:03:20.073Z,98308.17
2018-12-09T01:05:49.339Z,98310.53
2018-12-09T01:08:18.608Z,98312.49
2018-12-09T01:10:47.895Z,98309.34
2018-12-09T01:13:17.159Z,98306.22
2018-12-09T01:15:46.424Z,98312.09
2018-12-09T01:18:15.690Z,98300.88
2018-12-09T01:20:44.956Z,98301.06
2018-12-09T01:23:14.253Z,98305.20
2018-12-09T01:25:43.548Z,98296.53
2018-12-09T01:28:12.782Z,98331.36
2018-12-09T01:30:42.057Z,98353.58
2018-12-09T01:33:12.233Z,98359.19
2018-12-09T01:35:41.498Z,98364.24
2018-12-09T01:38:10.762Z,98373.47
2018-12-09T01:40:58.781Z,98373.23
2018-12-09T01:43:28.042Z,98370.64
2018-12-09T01:45:57.312Z,98375.53
2018-12-09T01:48:26.567Z,98381.97
2018-12-09T01:50:55.826Z,98374.27
2018-12-09T01:54:03.172Z,98385.09
2018-12-09T01:56:32.634Z,98385.27
2018-12-09T01:59:01.887Z,98395.22
2018-12-09T02:01:31.169Z,98395.98
2018-12-09T02:04:00.426Z,98396.55
2018-12-09T02:06:29.696Z,98394.38
2018-12-09T02:08:58.947Z,98399.09
2018-12-09T02:11:28.213Z,98399.30
2018-12-09T02:13:57.488Z,98405.78
2018-12-09T02:16:26.759Z,98404.79
2018-12-09T02:19:28.118Z,98403.58
2018-12-09T02:21:57.476Z,98408.84
2018-12-09T02:24:26.755Z,98422.61
2018-12-09T02:26:56.033Z,98423.16
2018-12-09T02:29:25.305Z,98422.33
2018-12-09T02:31:54.574Z,98429.60
2018-12-09T02:34:24.749Z,98438.63
2018-12-09T02:36:54.000Z,98437.64
2018-12-09T02:39:23.263Z,98435.84
2018-12-09T02:41:52.525Z,98443.69
2018-12-09T02:44:22.702Z,98449.14
2018-12-09T02:46:51.976Z,98454.16
2018-12-09T02:49:21.242Z,98443.35
2018-12-09T02:51:50.521Z,98446.59
2018-12-09T02:54:19.790Z,98450.27
2018-12-09T02:56:49.068Z,98451.77
2018-12-09T02:59:18.330Z,98462.36
2018-12-09T03:01:47.715Z,98463.28
2018-12-09T03:04:16.963Z,98469.09
2018-12-09T03:06:46.232Z,98469.70
2018-12-09T03:09:15.504Z,98472.64
2018-12-09T03:11:44.779Z,98477.72
2018-12-09T03:14:14.038Z,98476.89
2018-12-09T03:16:44.214Z,98478.22
2018-12-09T03:19:13.492Z,98471.73
2018-12-09T03:21:42.769Z,98478.38
2018-12-09T03:24:31.099Z,98481.25
2018-12-09T03:27:00.379Z,98483.62
2018-12-09T03:29:29.655Z,98486.63
2018-12-09T03:32:17.989Z,98485.67
2018-12-09T03:34:47.343Z,98484.11
2018-12-09T03:37:16.620Z,98489.38
2018-12-09T03:39:45.879Z,98488.96
2018-12-09T03:42:15.160Z,98495.98
2018-12-09T03:44:44.428Z,98490.67
2018-12-09T03:47:13.705Z,98492.47
2018-12-09T03:49:42.974Z,98501.48
2018-12-09T03:52:12.252Z,98501.30
2018-12-09T03:54:42.416Z,98495.56
2018-12-09T03:57:11.696Z,98499.87
2018-12-09T03:59:40.962Z,98509.70
2018-12-09T04:02:10.231Z,98509.70
2018-12-09T04:04:39.496Z,98511.88
2018-12-09T04:07:08.776Z,98509.55
2018-12-09T04:09:57.101Z,98518.78
2018-12-09T04:12:26.375Z,98515.61
2018-12-09T04:14:55.630Z,98518.78
2018-12-09T04:17:24.915Z,98527.41
2018-12-09T04:19:54.180Z,98527.61
2018-12-09T04:22:23.457Z,98535.86
2018-12-09T04:24:53.634Z,98534.29
2018-12-09T04:27:22.907Z,98536.81
2018-12-09T04:29:52.171Z,98529.73
2018-12-09T04:32:21.435Z,98531.31
2018-12-09T04:34:50.685Z,98533.71
2018-12-09T04:37:19.959Z,98536.66
2018-12-09T04:39:49.211Z,98541.01
2018-12-09T04:42:18.499Z,98542.00
2018-12-09T04:44:47.797Z,98535.74
2018-12-09T04:47:17.058Z,98543.27
2018-12-09T04:49:46.315Z,98550.94
2018-12-09T04:52:15.578Z,98554.69
2018-12-09T04:54:44.842Z,98538.98
2018-12-09T04:57:14.119Z,98547.43
2018-12-09T05:00:21.433Z,98552.36
2018-12-09T05:02:51.011Z,98552.20
2018-12-09T05:05:20.266Z,98544.30
2018-12-09T05:07:49.532Z,98554.53
2018-12-09T05:10:18.775Z,98552.55
2018-12-09T05:12:48.054Z,98560.45
2018-12-09T05:15:17.305Z,98569.13
2018-12-09T05:17:46.574Z,98567.11
2018-12-09T05:20:15.829Z,98571.45
2018-12-09T05:22:45.105Z,98573.36
2018-12-09T05:25:15.264Z,98567.44
2018-12-09T05:27:44.537Z,98578.26
2018-12-09T05:30:13.793Z,98587.69
2018-12-09T05:32:43.375Z,98582.76
2018-12-09T05:35:12.628Z,98583.19
2018-12-09T05:37:41.898Z,98582.19
2018-12-09T05:40:12.069Z,98588.27
2018-12-09T05:42:41.369Z,98593.91
2018-12-09T05:45:10.662Z,98600.78
2018-12-09T05:47:40.848Z,98597.89
2018-12-09T05:50:10.156Z,98608.31
2018-12-09T05:52:39.429Z,98605.14
2018-12-09T05:55:27.755Z,98606.89
2018-12-09T05:57:57.027Z,98603.54
2018-12-09T06:00:26.289Z,98619.27
2018-12-09T06:02:57.189Z,98621.83
2018-12-09T06:05:26.458Z,98628.36
2018-12-09T06:07:55.721Z,98622.44
2018-12-09T06:10:24.991Z,98624.44
2018-12-09T06:12:54.265Z,98626.45
2018-12-09T06:15:23.587Z,98624.86
2018-12-09T06:17:52.882Z,98637.88
2018-12-09T06:20:22.165Z,98638.50
2018-12-09T06:22:51.444Z,98646.98
2018-12-09T06:25:39.779Z,98646.61
2018-12-09T06:28:09.081Z,98653.33
2018-12-09T06:30:38.334Z,98651.73
2018-12-09T06:33:07.598Z,98655.05
2018-12-09T06:35:36.871Z,98657.61
2018-12-09T06:38:06.332Z,98656.85
2018-12-09T06:40:35.601Z,98656.12
2018-12-09T06:43:04.854Z,98659.68
2018-12-09T06:45:34.117Z,98659.68
2018-12-09T06:48:03.376Z,98655.55
2018-12-09T06:50:32.746Z,98665.75
2018-12-09T06:53:01.994Z,98663.95
2018-12-09T06:55:31.265Z,98676.33
2018-12-09T06:58:00.523Z,98673.16
2018-12-09T07:00:29.787Z,98684.96
2018-12-09T07:02:59.034Z,98687.72
2018-12-09T07:05:28.301Z,98693.21
2018-12-09T07:07:57.558Z,98689.09
2018-12-09T07:10:26.826Z,98691.23
2018-12-09T07:12:56.079Z,98701.66
2018-12-09T07:15:25.360Z,98707.59
2018-12-09T07:17:54.623Z,98710.19
2018-12-09T07:20:23.886Z,98712.80
2018-12-09T07:23:12.236Z,98726.75
2018-12-09T07:25:41.511Z,98716.69
2018-12-09T07:28:10.783Z,98719.44
2018-12-09T07:30:40.055Z,98725.17
2018-12-09T07:33:09.315Z,98726.32
2018-12-09T07:35:38.594Z,98735.00
2018-12-09T07:38:07.855Z,98741.50
2018-12-09T07:40:37.122Z,98745.48
2018-12-09T07:43:06.375Z,98752.36
2018-12-09T07:45:36.551Z,98751.56
2018-12-09T07:48:05.796Z,98751.21
2018-12-09T07:50:35.058Z,98757.86
2018-12-09T07:53:04.340Z,98765.69
2018-12-09T07:55:33.625Z,98765.92
2018-12-09T07:58:02.880Z,98769.87
2018-12-09T08:00:51.204Z,98774.08
2018-12-09T08:03:20.462Z,98775.65
2018-12-09T08:05:49.730Z,98778.20
2018-12-09T08:08:18.990Z,98787.83
2018-12-09T08:10:48.268Z,98783.28
2018-12-09T08:13:17.526Z,98790.93
2018-12-09T08:15:46.802Z,98802.59
2018-12-09T08:18:16.059Z,98797.89
2018-12-09T08:20:45.327Z,98809.05
2018-12-09T08:23:14.587Z,98809.47
2018-12-09T08:25:43.854Z,98817.92
2018-12-09T08:28:13.110Z,98818.58
2018-12-09T08:30:42.375Z,98824.56
2018-12-09T08:33:11.641Z,98823.84
2018-12-09T08:35:40.906Z,98817.02
2018-12-09T08:38:10.285Z,98833.15
2018-12-09T08:40:39.555Z,98831.77
2018-12-09T08:43:08.814Z,98841.83
2018-12-09T08:45:38.181Z,98842.27
2018-12-09T08:48:07.446Z,98844.30
2018-12-09T08:50:36.724Z,98849.42
2018-12-09T08:53:05.992Z,98852.83
2018-12-09T08:55:35.264Z,98856.16
2018-12-09T08:58:04.518Z,98856.01
2018-12-09T09:00:33.790Z,98870.78
2018-12-09T09:03:03.062Z,98874.33
2018-12-09T09:05:32.357Z,98890.67
2018-12-09T09:10:50.000Z,98885.15
2018-12-09T09:13:19.251Z,98889.09
2018-12-09T09:15:48.519Z,98898.50
2018-12-09T09:18:17.780Z,98890.69
2018-12-09T09:23:22.398Z,98902.23
2018-12-09T09:25:51.664Z,98873.78
2018-12-09T09:31:09.343Z,98884.21
2018-12-09T09:36:27.012Z,98889.47
2018-12-09T09:41:44.685Z,98904.55
2018-12-09T09:44:13.953Z,98894.56
2018-12-09T09:46:43.225Z,98890.11
2018-12-09T09:52:00.887Z,98887.68
2018-12-09T09:54:30.153Z,98891.56
2018-12-09T09:56:59.433Z,98889.75
2018-12-09T10:02:17.108Z,98906.39
2018-12-09T10:07:34.768Z,98904.52
2018-12-09T10:10:04.044Z,98899.56
2018-12-09T10:15:08.449Z,98933.59
2018-12-09T10:17:37.731Z,98941.83
2018-12-09T10:20:07.673Z,98949.55
2018-12-09T10:22:36.960Z,98943.45
2018-12-09T10:25:06.643Z,98951.07
2018-12-09T10:27:35.922Z,98932.01
2018-12-09T10:30:05.394Z,98946.20
2018-12-09T10:32:34.668Z,98934.44
2018-12-09T10:37:52.350Z,98950.38
2018-12-09T10:40:21.615Z,98947.97
2018-12-09T10:42:50.881Z,98939.30
2018-12-09T10:45:20.149Z,98938.77
2018-12-09T10:50:23.971Z,98937.47
2018-12-09T10:52:53.259Z,98942.20
2018-12-09T10:55:22.522Z,98946.05
2018-12-09T10:58:11.408Z,98943.61
2018-12-09T11:00:59.405Z,98944.16
2018-12-09T11:03:28.694Z,98957.17
2018-12-09T11:05:57.960Z,98963.52
2018-12-09T11:08:27.328Z,98967.34
2018-12-09T11:10:56.586Z,98965.70
2018-12-09T11:13:25.862Z,98976.16
2018-12-09T11:15:55.153Z,98985.19
2018-12-09T11:18:24.433Z,98993.50
2018-12-09T11:20:53.700Z,98997.65
2018-12-09T11:23:22.971Z,99007.43
2018-12-09T11:25:52.239Z,99007.12
2018-12-09T11:28:21.503Z,98998.64
2018-12-09T11:30:50.769Z,99009.39
2018-12-09T11:33:20.057Z,99003.23
2018-12-09T11:35:49.314Z,99002.69
2018-12-09T11:38:18.604Z,99008.02
2018-12-09T11:40:47.866Z,99002.52
2018-12-09T11:43:23.985Z,99010.72
2018-12-09T11:48:41.664Z,99009.36
2018-12-09T11:51:10.932Z,99016.36
2018-12-09T11:53:59.824Z,99013.31
2018-12-09T11:56:29.129Z,99018.51
2018-12-09T11:58:58.403Z,99016.92
2018-12-09T12:01:27.666Z,99027.47
2018-12-09T12:03:56.978Z,99027.72
2018-12-09T12:06:26.267Z,99018.90
2018-12-09T12:08:55.512Z,99021.86
2018-12-09T12:11:24.774Z,99011.52
2018-12-09T12:13:54.042Z,99026.03
2018-12-09T12:16:23.328Z,99016.83
2018-12-09T12:18:52.606Z,99021.75
2018-12-09T12:21:21.898Z,99019.02
2018-12-09T12:23:51.155Z,99022.36
2018-12-09T12:26:20.528Z,99023.91
2018-12-09T12:28:49.873Z,99035.09
2018-12-09T12:31:19.156Z,99030.94
2018-12-09T12:33:48.450Z,99022.30
2018-12-09T12:36:17.729Z,99033.00
2018-12-09T12:38:46.999Z,99041.23
2018-12-09T12:41:16.274Z,99044.44
2018-12-09T12:44:05.274Z,99041.77
2018-12-09T12:46:34.563Z,99047.63
2018-12-09T12:49:03.847Z,99048.41
2018-12-09T12:51:33.179Z,99056.23
2018-12-09T12:54:02.474Z,99059.77
2018-12-09T12:56:50.793Z,99064.99
2018-12-09T12:59:20.059Z,99067.31
2018-12-09T13:01:49.337Z,99077.09
2018-12-09T13:04:18.620Z,99088.57
2018-12-09T13:06:47.881Z,99096.59
2018-12-09T13:09:17.141Z,99091.32
2018-12-09T13:12:06.021Z,99098.68
2018-12-09T13:14:35.292Z,99102.81
2018-12-09T13:17:04.592Z,99110.17
2018-12-09T13:19:33.862Z,99120.70
2018-12-09T13:22:03.133Z,99116.20
2018-12-09T13:24:32.400Z,99117.72
2018-12-09T13:27:01.686Z,99131.87
2018-12-09T13:29:30.950Z,99141.02
2018-12-09T13:32:00.228Z,99136.22
2018-12-09T13:34:29.491Z,99151.25
2018-12-09T13:36:58.774Z,99151.76
2018-12-09T13:39:28.041Z,99151.53
2018-12-09T13:41:57.316Z,99154.52
2018-12-09T13:44:26.579Z,99162.03
2018-12-09T13:46:55.906Z,99164.28
2018-12-09T13:49:25.169Z,99170.83
2018-12-09T13:51:54.448Z,99176.91
2018-12-09T13:54:23.717Z,99184.73
2018-12-09T13:56:52.984Z,99187.06
2018-12-09T13:59:22.254Z,99189.81
2018-12-09T14:01:51.520Z,99198.45
2018-12-09T14:04:20.784Z,99195.46
2018-12-09T14:06:50.086Z,99197.58
2018-12-09T14:09:19.434Z,99215.38
2018-12-09T14:11:48.647Z,99221.84
2018-12-09T14:14:17.934Z,99229.09
2018-12-09T14:16:47.217Z,99229.22
2018-12-09T14:19:16.494Z,99232.41
2018-12-09T14:21:45.790Z,99233.80
2018-12-09T14:24:15.043Z,99247.13
2018-12-09T14:26:44.311Z,99266.41
2018-12-09T14:29:33.199Z,99269.32
2018-12-09T14:32:02.500Z,99273.72
2018-12-09T14:34:31.768Z,99287.17
2018-12-09T14:37:01.051Z,99277.33
2018-12-09T14:39:30.307Z,99286.97
2018-12-09T14:41:59.572Z,99291.36
2018-12-09T14:44:29.476Z,99302.09
2018-12-09T14:46:59.001Z,99313.44
2018-12-09T14:49:48.199Z,99317.36
2018-12-09T14:52:17.486Z,99323.64
2018-12-09T14:54:46.742Z,99329.07
2018-12-09T14:57:16.017Z,99332.19
2018-12-09T14:59:45.279Z,99339.44
2018-12-09T15:02:14.545Z,99359.63
2018-12-09T15:04:43.808Z,99363.08
2018-12-09T15:07:13.080Z,99351.06
2018-12-09T15:09:42.427Z,99360.61
2018-12-09T15:15:06.666Z,99363.84
2018-12-09T15:17:35.941Z,99374.05
2018-12-09T15:20:05.686Z,99378.78
2018-12-09T15:22:34.959Z,99381.45
2018-12-09T15:25:04.251Z,99385.70
2018-12-09T15:27:33.525Z,99391.77
2018-12-09T15:30:02.796Z,99393.59
2018-12-09T15:32:32.083Z,99401.64
2018-12-09T15:35:01.391Z,99410.70
2018-12-09T15:37:30.727Z,99416.80
2018-12-09T15:40:00.010Z,99424.02
2018-12-09T15:42:29.349Z,99418.77
2018-12-09T15:44:58.620Z,99419.61
2018-12-09T15:47:27.921Z,99414.03
2018-12-09T15:49:57.193Z,99423.30
2018-12-09T15:52:26.486Z,99425.57
2018-12-09T15:54:55.775Z,99429.32
2018-12-09T15:57:25.082Z,99441.77
2018-12-09T15:59:54.366Z,99445.41
2018-12-09T16:02:23.725Z,99440.47
2018-12-09T16:05:11.973Z,99459.06
2018-12-09T16:07:41.331Z,99463.81
2018-12-09T16:10:11.586Z,99467.39
2018-12-09T16:12:40.906Z,99477.05
2018-12-09T16:15:10.208Z,99501.74
2018-12-09T16:17:39.499Z,99495.59
2018-12-09T16:20:08.814Z,99507.36
2018-12-09T16:22:38.097Z,99517.97
2018-12-09T16:25:07.354Z,99515.13
2018-12-09T16:27:36.617Z,99522.89
2018-12-09T16:30:06.524Z,99530.81
2018-12-09T16:32:35.776Z,99541.20
2018-12-09T16:35:05.334Z,99550.31
2018-12-09T16:37:34.613Z,99549.00
2018-12-09T16:40:03.910Z,99558.68
2018-12-09T16:42:33.169Z,99562.19
2018-12-09T16:45:02.468Z,99571.50
2018-12-09T16:47:31.751Z,99559.13
2018-12-09T16:50:01.052Z,99572.21
2018-12-09T16:52:30.311Z,99572.93
2018-12-09T16:54:59.582Z,99578.19
2018-12-09T16:57:28.855Z,99579.59
2018-12-09T16:59:58.112Z,99580.64
2018-12-09T17:02:27.372Z,99598.55
2018-12-09T17:04:56.653Z,99597.08
2018-12-09T17:07:25.912Z,99598.72
2018-12-09T17:09:55.183Z,99601.58
2018-12-09T17:12:24.430Z,99612.94
2018-12-09T17:14:53.700Z,99623.59
2018-12-09T17:17:22.950Z,99636.19
2018-12-09T17:19:52.847Z,99640.56
2018-12-09T17:22:22.735Z,99648.81
2018-12-09T17:24:52.473Z,99661.42
2018-12-09T17:30:10.133Z,99681.95
2018-12-09T17:32:39.428Z,99677.73
2018-12-09T17:35:08.729Z,99682.67
2018-12-09T17:37:37.994Z,99681.63
2018-12-09T17:40:08.803Z,99682.55
2018-12-09T17:42:38.099Z,99693.09
2018-12-09T17:45:07.420Z,99701.48
2018-12-09T17:47:36.679Z,99706.28
2018-12-09T17:50:06.244Z,99704.80
2018-12-09T17:52:35.463Z,99719.36
2018-12-09T17:55:04.761Z,99727.26
2018-12-09T17:57:34.023Z,99731.14
2018-12-09T18:00:03.308Z,99740.77
2018-12-09T18:02:32.567Z,99749.83
2018-12-09T18:05:01.850Z,99771.95
2018-12-09T18:07:31.241Z,99777.45
2018-12-09T18:10:00.502Z,99768.88
2018-12-09T18:12:29.753Z,99772.76
2018-12-09T18:14:59.016Z,99781.25
2018-12-09T18:17:28.283Z,99795.01
2018-12-09T18:19:57.566Z,99799.70
2018-12-09T18:22:26.838Z,99788.23
2018-12-09T18:25:15.701Z,99799.59
2018-12-09T18:27:44.955Z,99809.78
2018-12-09T18:30:14.223Z,99807.38
2018-12-09T18:32:43.573Z,99826.63
2018-12-09T18:35:12.851Z,99840.14
2018-12-09T18:40:17.335Z,99837.73
2018-12-09T18:42:46.604Z,99838.08
2018-12-09T18:45:15.861Z,99852.30
2018-12-09T18:47:45.135Z,99858.02
2018-12-09T18:50:14.437Z,99866.52
2018-12-09T18:52:43.731Z,99863.98
2018-12-09T18:55:12.982Z,99855.16
2018-12-09T18:57:42.263Z,99876.83
2018-12-09T19:00:11.566Z,99883.36
2018-12-09T19:02:40.838Z,99889.10
2018-12-09T19:05:10.256Z,99895.98
2018-12-09T19:07:39.520Z,99891.61
2018-12-09T19:10:08.790Z,99895.98
2018-12-09T19:12:38.087Z,99904.23
2018-12-09T19:15:07.364Z,99917.18
2018-12-09T19:17:56.597Z,99915.91
2018-12-09T19:20:25.866Z,99927.34
2018-12-09T19:22:55.191Z,99942.13
2018-12-09T19:25:24.481Z,99953.11
2018-12-09T19:27:53.745Z,99958.20
2018-12-09T19:30:23.007Z,99957.35
2018-12-09T19:32:52.283Z,99949.63
2018-12-09T19:35:21.579Z,99954.78
2018-12-09T19:37:50.982Z,99965.06
2018-12-09T19:40:20.371Z,99973.65
2018-12-09T19:42:49.708Z,99981.42
2018-12-09T19:45:18.979Z,99986.11
2018-12-09T19:47:48.298Z,99986.36
2018-12-09T19:50:17.557Z,99995.73
2018-12-09T19:52:46.856Z,100000.67
2018-12-09T19:55:16.160Z,100000.11
2018-12-09T19:57:45.436Z,100003.08
2018-12-09T20:00:14.721Z,100018.76
2018-12-09T20:02:44.002Z,100017.08
2018-12-09T20:05:13.310Z,100032.97
2018-12-09T20:07:42.622Z,100020.38
2018-12-09T20:10:11.950Z,100041.81
2018-12-09T20:12:41.269Z,100039.63
2018-12-09T20:15:10.682Z,100057.50
2018-12-09T20:17:39.909Z,100055.87
2018-12-09T20:20:10.634Z,100058.06
2018-12-09T20:22:40.595Z,100069.05
2018-12-09T20:25:09.868Z,100071.24
2018-12-09T20:27:39.124Z,100081.89
2018-12-09T20:30:09.862Z,100092.55
2018-12-09T20:32:39.150Z,100097.27
2018-12-09T20:35:08.444Z,100108.49
2018-12-09T20:37:37.722Z,100113.52
2018-12-09T20:40:07.030Z,100103.20
2018-12-09T20:42:36.298Z,100114.19
2018-12-09T20:45:06.568Z,100117.16
2018-12-09T20:47:35.834Z,100122.66
2018-12-09T20:50:05.381Z,100125.75
2018-12-09T20:52:34.656Z,100124.94
2018-12-09T20:55:03.934Z,100131.58
2018-12-09T20:57:33.185Z,100146.11
2018-12-09T21:00:02.453Z,100142.80
2018-12-09T21:02:51.315Z,100140.53
2018-12-09T21:05:20.588Z,100158.66
2018-12-09T21:07:49.848Z,100162.52
2018-12-09T21:10:19.117Z,100160.33
2018-12-09T21:12:48.379Z,100177.64
2018-12-09T21:15:17.672Z,100175.38
2018-12-09T21:17:46.921Z,100179.75
2018-12-09T21:20:16.188Z,100177.48
2018-12-09T21:22:45.446Z,100179.08
2018-12-09T21:25:14.714Z,100186.51
2018-12-09T21:27:43.977Z,100190.89
2018-12-09T21:30:13.240Z,100197.28
2018-12-09T21:32:42.502Z,100200.52
2018-12-09T21:35:11.772Z,100205.19
2018-12-09T21:37:42.025Z,100211.73
2018-12-09T21:40:11.226Z,100211.98
2018-12-09T21:42:40.486Z,100224.02
2018-12-09T21:45:09.777Z,100230.08
2018-12-09T21:47:39.060Z,100228.23
2018-12-09T21:50:08.724Z,100234.32
2018-12-09T21:52:37.985Z,100234.32
2018-12-09T21:55:07.375Z,100238.67
2018-12-09T21:57:36.643Z,100246.21
2018-12-09T22:02:55.352Z,100249.12
2018-12-09T22:05:24.626Z,100262.86
2018-12-09T22:07:53.945Z,100262.64
2018-12-09T22:10:23.212Z,100270.63
2018-12-09T22:12:52.495Z,100271.05
2018-12-09T22:15:21.767Z,100296.04
2018-12-09T22:17:51.037Z,100289.58
2018-12-09T22:20:20.305Z,100314.06
2018-12-09T22:22:49.584Z,100304.77
2018-12-09T22:25:19.006Z,100318.37
2018-12-09T22:27:48.286Z,100314.32
2018-12-09T22:30:17.558Z,100324.27
2018-12-09T22:32:46.867Z,100325.39
2018-12-09T22:35:16.135Z,100326.20
2018-12-09T22:37:45.415Z,100334.78
2018-12-09T22:40:14.678Z,100334.03
2018-12-09T22:42:43.952Z,100339.53
2018-12-09T22:45:13.211Z,100330.24
2018-12-09T22:47:42.494Z,100343.73
2018-12-09T22:50:11.756Z,100343.73
2018-12-09T22:52:41.026Z,100349.81
2018-12-09T22:55:10.300Z,100354.98
2018-12-09T22:57:39.580Z,100365.48
2018-12-09T23:00:30.957Z,100366.92
2018-12-09T23:03:18.981Z,100376.29
2018-12-09T23:05:48.247Z,100377.50
2018-12-09T23:08:17.541Z,100379.70
2018-12-09T23:10:46.808Z,100388.16
2018-12-09T23:13:16.085Z,100388.16
2018-12-09T23:15:45.353Z,100400.53
2018-12-09T23:18:14.634Z,100406.68
2018-12-09T23:20:43.899Z,100413.95
2018-12-09T23:23:13.193Z,100414.34
2018-12-09T23:25:42.464Z,100412.16
2018-12-09T23:28:11.743Z,100414.34
2018-12-09T23:30:41.013Z,100431.05
2018-12-09T23:33:10.295Z,100436.75
2018-12-09T23:35:39.648Z,100451.27
2018-12-09T23:38:08.943Z,100451.59
2018-12-09T23:40:38.246Z,100461.47
2018-12-09T23:43:07.556Z,100452.34
2018-12-09T23:45:36.784Z,100446.52
2018-12-09T23:48:06.064Z,100455.16
2018-12-09T23:50:35.335Z,100454.31
2018-12-09T23:53:04.601Z,100457.84
2018-12-09T23:55:33.898Z,100451.86
2018-12-09T23:58:03.185Z,100453.88
